Estación Meteorológica Peña el Pijo (Robertgarden) [ 09/26/18 04:19:41 CEST ]

Fecha Hora Presion(HPa) Temp (°C) Humedad % Rocio (°C) Viento ( m/s) Direccion Lluvia 1Hora(mm) Lluvia 24H(mm) LLuvia Total(mm)
2018-Sep-13 01:01:37 1014.900 15.8 85 13.3         344.98
2018-Sep-13 02:01:48 1014.400 15.8 86 13.5         344.98
2018-Sep-13 03:03:08 1014.000 14.9 87 12.8         344.98
2018-Sep-13 04:01:49 1013.800 14.3 87 12.2         344.98
2018-Sep-13 05:01:54 1013.400 14.2 88 12.2         344.98
2018-Sep-13 06:02:01 1013.300 14.3 88 12.3         344.98
2018-Sep-13 07:01:52 1013.600 14.2 88 12.2         344.98
2018-Sep-13 08:01:51 1013.600 13.9 88 11.9         344.98
2018-Sep-13 09:01:44 1013.900 14.8 89 13.0         344.98
2018-Sep-13 10:01:46 1014.100 19.4 86 17.0         344.98
2018-Sep-13 11:01:39 1014.000 26.4 61 18.3         344.98
2018-Sep-13 12:01:49 1014.000 28.1 44 14.6         344.98
2018-Sep-13 13:02:01 1013.900 30.1 36 13.3         344.98
2018-Sep-13 14:01:38 1013.400 28.8 36 12.2         344.98
2018-Sep-13 15:01:48 1012.800 30.3 32 11.7         344.98
2018-Sep-13 16:01:45 1012.300 31.3 31 12.1         344.98
2018-Sep-13 17:01:44 1011.900 29.5 33 11.5         344.98
2018-Sep-13 18:01:36 1011.600 28.4 36 11.8         344.98
2018-Sep-13 19:01:46 1011.700 27.4 38 11.8         344.98
2018-Sep-13 20:01:37 1011.800 24.4 48 12.7         344.98
2018-Sep-13 21:01:50 1011.900 21.5 60 13.4         344.98
2018-Sep-13 22:01:47 1012.500 19.4 68 13.3         344.98
2018-Sep-13 23:01:53 1012.800 17.0 75 12.5         344.98

Temperatura Máxima:31°    Temperatura Mínima:13°
Presión Máxima:1014.900 Hpa    Presión Mínima:1011.600 Hpa


Volver